sensor_id;sensor_type;location;lat;lon;timestamp;pressure;altitude;pressure_sealevel;temperature;humidity
32735;BME280;19112;51.076;3.706;2023-01-28T00:00:06;102751.19;;;6.23;65.52
32735;BME280;19112;51.076;3.706;2023-01-28T00:02:34;102852.09;;;6.67;65.01
32735;BME280;19112;51.076;3.706;2023-01-28T00:05:01;102728.72;;;5.93;65.45
32735;BME280;19112;51.076;3.706;2023-01-28T00:07:27;102620.34;;;5.33;65.56
32735;BME280;19112;51.076;3.706;2023-01-28T00:09:53;102856.69;;;6.59;65.57
32735;BME280;19112;51.076;3.706;2023-01-28T00:12:19;102530.63;;;4.77;65.47
32735;BME280;19112;51.076;3.706;2023-01-28T00:14:45;102809.09;;;6.19;65.77
32735;BME280;19112;51.076;3.706;2023-01-28T00:17:14;102772.47;;;6.08;65.82
32735;BME280;19112;51.076;3.706;2023-01-28T00:19:40;102854.66;;;6.45;65.25
32735;BME280;19112;51.076;3.706;2023-01-28T00:22:06;102862.91;;;6.39;64.58
32735;BME280;19112;51.076;3.706;2023-01-28T00:24:31;102870.19;;;6.33;64.75
32735;BME280;19112;51.076;3.706;2023-01-28T00:26:57;102644.72;;;5.03;64.70
32735;BME280;19112;51.076;3.706;2023-01-28T00:29:23;102683.19;;;5.27;65.22
32735;BME280;19112;51.076;3.706;2023-01-28T00:31:49;102866.94;;;6.36;65.49
32735;BME280;19112;51.076;3.706;2023-01-28T00:34:15;102814.84;;;6.05;65.36
32735;BME280;19112;51.076;3.706;2023-01-28T00:36:40;102833.09;;;6.05;65.24
32735;BME280;19112;51.076;3.706;2023-01-28T00:39:10;102830.09;;;6.11;64.95
32735;BME280;19112;51.076;3.706;2023-01-28T00:41:38;102874.00;;;6.26;65.18
32735;BME280;19112;51.076;3.706;2023-01-28T00:44:03;102865.13;;;6.35;65.29
32735;BME280;19112;51.076;3.706;2023-01-28T00:46:29;102752.47;;;5.45;64.80
32735;BME280;19112;51.076;3.706;2023-01-28T00:48:55;102779.16;;;5.94;65.54
32735;BME280;19112;51.076;3.706;2023-01-28T00:51:21;102557.94;;;4.51;65.91
32735;BME280;19112;51.076;3.706;2023-01-28T00:53:48;102721.22;;;5.56;66.22
32735;BME280;19112;51.076;3.706;2023-01-28T00:56:16;102842.06;;;6.19;66.27
32735;BME280;19112;51.076;3.706;2023-01-28T00:58:43;102835.28;;;6.11;66.35
32735;BME280;19112;51.076;3.706;2023-01-28T01:01:14;102880.38;;;6.40;66.34
32735;BME280;19112;51.076;3.706;2023-01-28T01:03:40;102758.28;;;5.73;66.23
32735;BME280;19112;51.076;3.706;2023-01-28T01:06:07;102646.13;;;5.09;66.20
32735;BME280;19112;51.076;3.706;2023-01-28T01:08:33;102794.25;;;5.88;66.45
32735;BME280;19112;51.076;3.706;2023-01-28T01:11:01;102784.72;;;5.88;66.49
32735;BME280;19112;51.076;3.706;2023-01-28T01:13:28;102602.69;;;4.78;66.45
32735;BME280;19112;51.076;3.706;2023-01-28T01:16:09;102840.78;;;6.14;66.73
32735;BME280;19112;51.076;3.706;2023-01-28T01:18:37;102593.84;;;4.86;66.58
32735;BME280;19112;51.076;3.706;2023-01-28T01:21:15;102611.78;;;4.93;66.38
32735;BME280;19112;51.076;3.706;2023-01-28T01:23:42;102788.56;;;5.92;66.51
32735;BME280;19112;51.076;3.706;2023-01-28T01:26:08;102814.56;;;6.12;66.36
32735;BME280;19112;51.076;3.706;2023-01-28T01:28:34;102793.22;;;5.96;66.31
32735;BME280;19112;51.076;3.706;2023-01-28T01:31:16;102780.41;;;6.09;66.23
32735;BME280;19112;51.076;3.706;2023-01-28T01:33:45;102886.31;;;6.49;65.70
32735;BME280;19112;51.076;3.706;2023-01-28T01:36:13;102809.72;;;6.17;65.92
32735;BME280;19112;51.076;3.706;2023-01-28T01:38:40;102875.88;;;6.49;65.68
32735;BME280;19112;51.076;3.706;2023-01-28T01:41:08;102847.28;;;6.29;65.19
32735;BME280;19112;51.076;3.706;2023-01-28T01:43:47;102877.88;;;6.42;65.25
32735;BME280;19112;51.076;3.706;2023-01-28T01:46:17;102778.34;;;5.95;65.37
32735;BME280;19112;51.076;3.706;2023-01-28T01:48:45;102795.88;;;6.18;65.27
32735;BME280;19112;51.076;3.706;2023-01-28T01:51:20;102881.44;;;6.64;64.78
32735;BME280;19112;51.076;3.706;2023-01-28T01:53:49;102876.50;;;6.67;65.12
32735;BME280;19112;51.076;3.706;2023-01-28T01:56:20;102731.97;;;5.81;64.80
32735;BME280;19112;51.076;3.706;2023-01-28T01:58:49;102832.13;;;6.35;65.11
32735;BME280;19112;51.076;3.706;2023-01-28T02:01:20;102846.19;;;6.37;64.99
32735;BME280;19112;51.076;3.706;2023-01-28T02:06:20;102807.91;;;6.16;65.34
32735;BME280;19112;51.076;3.706;2023-01-28T02:08:46;102859.09;;;6.46;65.43
32735;BME280;19112;51.076;3.706;2023-01-28T02:11:14;102882.78;;;6.59;65.38
32735;BME280;19112;51.076;3.706;2023-01-28T02:13:46;102728.72;;;5.73;65.58
32735;BME280;19112;51.076;3.706;2023-01-28T02:16:14;102856.78;;;6.28;65.99
32735;BME280;19112;51.076;3.706;2023-01-28T02:18:40;102841.56;;;6.13;66.82
32735;BME280;19112;51.076;3.706;2023-01-28T02:21:40;102891.47;;;6.27;67.18
32735;BME280;19112;51.076;3.706;2023-01-28T02:30:23;102816.28;;;5.81;67.79
32735;BME280;19112;51.076;3.706;2023-01-28T02:32:59;102834.28;;;5.98;67.95
32735;BME280;19112;51.076;3.706;2023-01-28T02:35:38;102782.16;;;5.68;67.70
32735;BME280;19112;51.076;3.706;2023-01-28T02:38:25;102893.94;;;6.36;67.44
32735;BME280;19112;51.076;3.706;2023-01-28T02:41:07;102888.03;;;6.39;67.55
32735;BME280;19112;51.076;3.706;2023-01-28T02:43:41;102815.63;;;6.04;67.53
32735;BME280;19112;51.076;3.706;2023-01-28T02:46:20;102848.44;;;6.22;66.99
32735;BME280;19112;51.076;3.706;2023-01-28T02:49:26;102832.16;;;6.15;67.41
32735;BME280;19112;51.076;3.706;2023-01-28T02:52:18;102874.06;;;6.48;67.11
32735;BME280;19112;51.076;3.706;2023-01-28T02:58:32;102882.59;;;6.36;67.31
32735;BME280;19112;51.076;3.706;2023-01-28T03:06:40;102887.72;;;6.24;67.97
32735;BME280;19112;51.076;3.706;2023-01-28T03:09:07;102798.28;;;5.74;68.06
32735;BME280;19112;51.076;3.706;2023-01-28T03:14:55;102805.09;;;5.62;67.92
32735;BME280;19112;51.076;3.706;2023-01-28T03:18:06;102905.06;;;6.13;68.09
32735;BME280;19112;51.076;3.706;2023-01-28T03:24:04;102901.91;;;6.17;67.88
32735;BME280;19112;51.076;3.706;2023-01-28T03:27:09;102845.47;;;5.87;67.71
32735;BME280;19112;51.076;3.706;2023-01-28T03:29:59;102851.88;;;5.81;67.92
32735;BME280;19112;51.076;3.706;2023-01-28T03:32:46;102911.56;;;6.18;67.57
32735;BME280;19112;51.076;3.706;2023-01-28T03:35:33;102905.41;;;6.18;67.42
32735;BME280;19112;51.076;3.706;2023-01-28T03:38:19;102908.81;;;6.27;67.53
32735;BME280;19112;51.076;3.706;2023-01-28T03:41:08;102783.63;;;5.54;66.62
32735;BME280;19112;51.076;3.706;2023-01-28T03:43:35;102903.34;;;6.24;67.22
32735;BME280;19112;51.076;3.706;2023-01-28T03:46:02;102693.25;;;5.12;67.20
32735;BME280;19112;51.076;3.706;2023-01-28T03:48:31;102889.66;;;6.16;66.70
32735;BME280;19112;51.076;3.706;2023-01-28T03:50:57;102785.94;;;5.51;66.43
32735;BME280;19112;51.076;3.706;2023-01-28T03:53:26;102917.53;;;6.27;66.31
32735;BME280;19112;51.076;3.706;2023-01-28T03:55:53;102740.13;;;5.22;65.70
32735;BME280;19112;51.076;3.706;2023-01-28T03:58:22;102922.38;;;6.23;65.43
32735;BME280;19112;51.076;3.706;2023-01-28T04:00:53;102677.88;;;4.75;65.64
32735;BME280;19112;51.076;3.706;2023-01-28T04:03:20;102870.50;;;5.95;65.89
32735;BME280;19112;51.076;3.706;2023-01-28T04:06:02;102924.06;;;6.33;65.36
32735;BME280;19112;51.076;3.706;2023-01-28T04:08:28;102791.44;;;5.54;64.81
32735;BME280;19112;51.076;3.706;2023-01-28T04:10:54;102868.78;;;5.86;64.72
32735;BME280;19112;51.076;3.706;2023-01-28T04:13:20;102800.53;;;5.39;64.55
32735;BME280;19112;51.076;3.706;2023-01-28T04:15:46;102926.69;;;6.12;64.62
32735;BME280;19112;51.076;3.706;2023-01-28T04:18:12;102931.13;;;6.13;64.10
32735;BME280;19112;51.076;3.706;2023-01-28T04:20:39;102714.97;;;5.03;64.01
32735;BME280;19112;51.076;3.706;2023-01-28T04:23:06;102842.19;;;5.79;64.09
32735;BME280;19112;51.076;3.706;2023-01-28T04:25:34;102669.94;;;4.93;63.48
32735;BME280;19112;51.076;3.706;2023-01-28T04:28:00;102913.13;;;6.16;62.66
32735;BME280;19112;51.076;3.706;2023-01-28T04:30:26;102893.84;;;6.04;62.33
32735;BME280;19112;51.076;3.706;2023-01-28T04:32:52;102931.94;;;6.02;62.25
32735;BME280;19112;51.076;3.706;2023-01-28T04:35:19;102793.50;;;5.28;62.39
32735;BME280;19112;51.076;3.706;2023-01-28T04:37:45;102923.72;;;5.97;62.78
32735;BME280;19112;51.076;3.706;2023-01-28T04:40:12;102588.72;;;4.16;62.81
32735;BME280;19112;51.076;3.706;2023-01-28T04:42:38;102922.22;;;5.91;62.46
32735;BME280;19112;51.076;3.706;2023-01-28T04:45:05;102817.47;;;5.44;62.21
32735;BME280;19112;51.076;3.706;2023-01-28T04:47:31;102942.88;;;6.28;62.79
32735;BME280;19112;51.076;3.706;2023-01-28T04:49:57;102891.47;;;6.07;61.19
32735;BME280;19112;51.076;3.706;2023-01-28T04:52:23;102931.63;;;6.40;61.72
32735;BME280;19112;51.076;3.706;2023-01-28T04:54:48;102852.91;;;6.03;62.00
32735;BME280;19112;51.076;3.706;2023-01-28T04:57:14;102873.63;;;6.01;61.40
32735;BME280;19112;51.076;3.706;2023-01-28T04:59:41;102931.47;;;6.38;61.47
32735;BME280;19112;51.076;3.706;2023-01-28T05:02:07;102879.63;;;6.11;61.09
32735;BME280;19112;51.076;3.706;2023-01-28T05:04:32;102938.16;;;6.35;61.42
32735;BME280;19112;51.076;3.706;2023-01-28T05:06:58;102926.16;;;6.37;61.50
32735;BME280;19112;51.076;3.706;2023-01-28T05:09:24;102887.84;;;6.15;61.19
32735;BME280;19112;51.076;3.706;2023-01-28T05:11:50;102842.50;;;6.03;61.31
32735;BME280;19112;51.076;3.706;2023-01-28T05:14:15;102928.22;;;6.41;60.99
32735;BME280;19112;51.076;3.706;2023-01-28T05:16:41;102914.94;;;6.27;60.40
32735;BME280;19112;51.076;3.706;2023-01-28T05:19:07;102929.16;;;6.21;60.64
32735;BME280;19112;51.076;3.706;2023-01-28T05:21:33;102917.56;;;6.07;60.84
32735;BME280;19112;51.076;3.706;2023-01-28T05:23:59;102765.50;;;5.25;61.80
32735;BME280;19112;51.076;3.706;2023-01-28T05:26:24;102901.25;;;5.89;61.88
32735;BME280;19112;51.076;3.706;2023-01-28T05:28:50;102937.50;;;6.17;61.76
32735;BME280;19112;51.076;3.706;2023-01-28T05:31:16;102929.44;;;6.14;61.69
32735;BME280;19112;51.076;3.706;2023-01-28T05:33:42;102901.56;;;5.92;62.01
32735;BME280;19112;51.076;3.706;2023-01-28T05:36:08;102852.00;;;5.72;62.27
32735;BME280;19112;51.076;3.706;2023-01-28T05:38:33;102870.91;;;6.00;62.14
32735;BME280;19112;51.076;3.706;2023-01-28T05:40:59;102900.47;;;6.11;62.20
32735;BME280;19112;51.076;3.706;2023-01-28T05:43:25;102937.25;;;6.24;62.02
32735;BME280;19112;51.076;3.706;2023-01-28T05:45:51;102713.28;;;4.93;62.12
32735;BME280;19112;51.076;3.706;2023-01-28T05:48:17;102796.63;;;5.44;62.36
32735;BME280;19112;51.076;3.706;2023-01-28T05:50:42;102898.41;;;5.96;62.97
32735;BME280;19112;51.076;3.706;2023-01-28T05:53:11;102949.13;;;6.20;62.98
32735;BME280;19112;51.076;3.706;2023-01-28T05:55:36;102947.03;;;6.16;63.06
32735;BME280;19112;51.076;3.706;2023-01-28T05:58:02;102909.78;;;5.97;63.26
32735;BME280;19112;51.076;3.706;2023-01-28T06:00:28;102876.88;;;5.78;63.56
32735;BME280;19112;51.076;3.706;2023-01-28T06:02:54;102902.94;;;5.89;63.84
32735;BME280;19112;51.076;3.706;2023-01-28T06:05:19;102770.44;;;5.12;63.91
32735;BME280;19112;51.076;3.706;2023-01-28T06:07:47;102901.63;;;5.84;63.88
32735;BME280;19112;51.076;3.706;2023-01-28T06:10:14;102847.41;;;5.59;64.13
32735;BME280;19112;51.076;3.706;2023-01-28T06:12:42;102781.38;;;5.18;63.99
32735;BME280;19112;51.076;3.706;2023-01-28T06:15:09;102903.75;;;5.98;64.13
32735;BME280;19112;51.076;3.706;2023-01-28T06:17:35;102935.81;;;6.17;63.95
32735;BME280;19112;51.076;3.706;2023-01-28T06:20:02;102819.81;;;5.51;63.83
32735;BME280;19112;51.076;3.706;2023-01-28T06:22:27;102889.13;;;5.90;63.96
32735;BME280;19112;51.076;3.706;2023-01-28T06:24:53;102938.69;;;6.00;64.04
32735;BME280;19112;51.076;3.706;2023-01-28T06:27:19;102934.38;;;6.00;64.31
32735;BME280;19112;51.076;3.706;2023-01-28T06:29:45;102938.41;;;6.07;64.43
32735;BME280;19112;51.076;3.706;2023-01-28T06:32:11;102892.41;;;5.87;64.28
32735;BME280;19112;51.076;3.706;2023-01-28T06:34:36;102904.16;;;6.02;64.39
32735;BME280;19112;51.076;3.706;2023-01-28T06:37:02;102861.91;;;5.66;63.77
32735;BME280;19112;51.076;3.706;2023-01-28T06:39:29;102601.72;;;4.36;63.81
32735;BME280;19112;51.076;3.706;2023-01-28T06:41:57;102879.22;;;5.86;63.55
32735;BME280;19112;51.076;3.706;2023-01-28T06:44:23;102949.13;;;6.20;63.72
32735;BME280;19112;51.076;3.706;2023-01-28T06:46:49;102952.00;;;6.13;64.22
32735;BME280;19112;51.076;3.706;2023-01-28T06:49:15;102947.81;;;5.95;64.24
32735;BME280;19112;51.076;3.706;2023-01-28T06:51:41;102949.84;;;5.89;64.31
32735;BME280;19112;51.076;3.706;2023-01-28T06:54:07;102952.72;;;5.82;64.33
32735;BME280;19112;51.076;3.706;2023-01-28T06:56:33;102962.25;;;5.81;64.66
32735;BME280;19112;51.076;3.706;2023-01-28T06:58:59;102913.97;;;5.45;64.37
32735;BME280;19112;51.076;3.706;2023-01-28T07:01:24;102964.28;;;5.75;64.67
32735;BME280;19112;51.076;3.706;2023-01-28T07:03:50;102964.94;;;5.62;63.62
32735;BME280;19112;51.076;3.706;2023-01-28T07:06:16;102967.63;;;5.53;64.32
32735;BME280;19112;51.076;3.706;2023-01-28T07:08:42;102926.94;;;5.25;64.42
32735;BME280;19112;51.076;3.706;2023-01-28T07:11:08;102758.09;;;4.31;64.06
32735;BME280;19112;51.076;3.706;2023-01-28T07:13:34;102933.22;;;5.37;64.06
32735;BME280;19112;51.076;3.706;2023-01-28T07:15:59;102971.19;;;5.54;64.36
32735;BME280;19112;51.076;3.706;2023-01-28T07:18:25;102914.44;;;5.31;63.94
32735;BME280;19112;51.076;3.706;2023-01-28T07:20:51;102787.38;;;4.67;63.89
32735;BME280;19112;51.076;3.706;2023-01-28T07:23:17;102808.72;;;4.73;63.42
32735;BME280;19112;51.076;3.706;2023-01-28T07:25:43;102901.56;;;5.22;63.54
32735;BME280;19112;51.076;3.706;2023-01-28T07:28:09;102931.19;;;5.14;62.92
32735;BME280;19112;51.076;3.706;2023-01-28T07:30:36;102833.41;;;4.58;63.09
32735;BME280;19112;51.076;3.706;2023-01-28T07:33:02;102988.69;;;5.36;63.42
32735;BME280;19112;51.076;3.706;2023-01-28T07:35:28;102957.78;;;5.20;63.20
32735;BME280;19112;51.076;3.706;2023-01-28T07:37:59;102828.53;;;4.42;63.93
32735;BME280;19112;51.076;3.706;2023-01-28T07:40:26;102906.53;;;4.90;63.47
32735;BME280;19112;51.076;3.706;2023-01-28T07:42:52;102782.16;;;4.28;63.88
32735;BME280;19112;51.076;3.706;2023-01-28T07:45:20;102974.38;;;5.41;63.78
32735;BME280;19112;51.076;3.706;2023-01-28T07:47:57;102778.97;;;4.41;64.07
32735;BME280;19112;51.076;3.706;2023-01-28T07:50:24;102836.31;;;4.71;63.48
32735;BME280;19112;51.076;3.706;2023-01-28T07:52:50;102831.34;;;4.64;63.75
32735;BME280;19112;51.076;3.706;2023-01-28T07:55:16;102996.97;;;5.51;64.10
32735;BME280;19112;51.076;3.706;2023-01-28T07:57:51;102966.19;;;5.47;63.58
32735;BME280;19112;51.076;3.706;2023-01-28T08:00:19;102992.56;;;5.60;63.05
32735;BME280;19112;51.076;3.706;2023-01-28T08:02:45;102267.06;;;1.27;62.41
32735;BME280;19112;51.076;3.706;2023-01-28T08:05:20;102672.63;;;3.76;62.99
32735;BME280;19112;51.076;3.706;2023-01-28T08:07:46;103001.13;;;5.49;63.13
32735;BME280;19112;51.076;3.706;2023-01-28T08:10:17;103005.19;;;5.56;63.37
32735;BME280;19112;51.076;3.706;2023-01-28T08:12:54;102942.44;;;5.23;63.21
32735;BME280;19112;51.076;3.706;2023-01-28T08:15:21;102867.38;;;4.99;63.46
32735;BME280;19112;51.076;3.706;2023-01-28T08:17:47;102838.31;;;4.94;62.75
32735;BME280;19112;51.076;3.706;2023-01-28T08:20:13;102652.06;;;3.98;62.09
32735;BME280;19112;51.076;3.706;2023-01-28T08:22:39;102878.13;;;5.43;62.27
32735;BME280;19112;51.076;3.706;2023-01-28T08:25:05;102990.03;;;6.01;61.98
32735;BME280;19112;51.076;3.706;2023-01-28T08:27:31;102917.38;;;5.55;61.16
32735;BME280;19112;51.076;3.706;2023-01-28T08:29:57;102879.19;;;5.45;61.71
32735;BME280;19112;51.076;3.706;2023-01-28T08:32:23;102987.31;;;5.99;61.10
32735;BME280;19112;51.076;3.706;2023-01-28T08:34:49;103008.16;;;5.99;60.21
32735;BME280;19112;51.076;3.706;2023-01-28T08:37:15;102671.56;;;4.03;59.48
32735;BME280;19112;51.076;3.706;2023-01-28T08:39:41;103015.53;;;5.85;58.41
32735;BME280;19112;51.076;3.706;2023-01-28T08:42:07;102707.88;;;4.11;59.46
32735;BME280;19112;51.076;3.706;2023-01-28T08:44:34;102847.03;;;4.85;59.46
32735;BME280;19112;51.076;3.706;2023-01-28T08:46:59;103026.16;;;5.96;59.59
32735;BME280;19112;51.076;3.706;2023-01-28T08:49:25;103011.97;;;6.03;60.25
32735;BME280;19112;51.076;3.706;2023-01-28T08:51:51;102929.38;;;5.73;60.52
32735;BME280;19112;51.076;3.706;2023-01-28T08:54:17;103026.59;;;6.32;60.05
32735;BME280;19112;51.076;3.706;2023-01-28T08:56:44;103023.19;;;6.33;60.13
32735;BME280;19112;51.076;3.706;2023-01-28T08:59:10;103024.38;;;6.36;60.20
32735;BME280;19112;51.076;3.706;2023-01-28T09:01:37;102912.31;;;5.66;59.89
32735;BME280;19112;51.076;3.706;2023-01-28T09:04:03;103026.84;;;6.35;59.67
32735;BME280;19112;51.076;3.706;2023-01-28T09:06:29;102898.75;;;5.50;59.16
32735;BME280;19112;51.076;3.706;2023-01-28T09:08:59;102954.09;;;5.97;59.57
32735;BME280;19112;51.076;3.706;2023-01-28T09:11:26;102894.59;;;5.72;59.57
32735;BME280;19112;51.076;3.706;2023-01-28T09:13:52;103028.41;;;6.53;59.32
32735;BME280;19112;51.076;3.706;2023-01-28T09:16:19;103031.81;;;6.52;59.18
32735;BME280;19112;51.076;3.706;2023-01-28T09:18:45;102768.06;;;5.05;59.08
32735;BME280;19112;51.076;3.706;2023-01-28T09:21:12;102978.91;;;5.83;58.96
32735;BME280;19112;51.076;3.706;2023-01-28T09:23:39;103001.41;;;5.91;59.33
32735;BME280;19112;51.076;3.706;2023-01-28T09:26:05;102957.25;;;5.64;59.48
32735;BME280;19112;51.076;3.706;2023-01-28T09:28:32;102999.06;;;6.15;59.54
32735;BME280;19112;51.076;3.706;2023-01-28T09:31:07;103002.06;;;6.09;58.98
32735;BME280;19112;51.076;3.706;2023-01-28T09:33:35;102983.09;;;5.81;59.10
32735;BME280;19112;51.076;3.706;2023-01-28T09:36:04;103052.13;;;6.05;59.28
32735;BME280;19112;51.076;3.706;2023-01-28T09:38:31;103007.06;;;5.77;59.99
32735;BME280;19112;51.076;3.706;2023-01-28T09:40:58;103055.78;;;6.27;59.93
32735;BME280;19112;51.076;3.706;2023-01-28T09:46:14;102921.91;;;5.47;59.01
32735;BME280;19112;51.076;3.706;2023-01-28T09:48:51;102951.16;;;5.84;59.07
32735;BME280;19112;51.076;3.706;2023-01-28T09:51:41;102765.78;;;4.68;58.72
32735;BME280;19112;51.076;3.706;2023-01-28T09:54:33;103062.97;;;6.30;58.67
32735;BME280;19112;51.076;3.706;2023-01-28T09:57:13;102924.63;;;5.48;58.31
32735;BME280;19112;51.076;3.706;2023-01-28T09:59:41;103004.38;;;5.96;58.85
32735;BME280;19112;51.076;3.706;2023-01-28T10:02:43;103057.63;;;6.18;58.57
32735;BME280;19112;51.076;3.706;2023-01-28T10:05:19;102976.69;;;5.77;58.60
32735;BME280;19112;51.076;3.706;2023-01-28T10:14:30;102923.56;;;5.36;59.12
32735;BME280;19112;51.076;3.706;2023-01-28T10:22:53;103090.78;;;6.50;59.11
32735;BME280;19112;51.076;3.706;2023-01-28T10:25:24;103063.50;;;6.36;58.96
32735;BME280;19112;51.076;3.706;2023-01-28T10:27:51;102973.38;;;5.99;58.43
32735;BME280;19112;51.076;3.706;2023-01-28T10:30:29;102747.59;;;4.79;58.37
32735;BME280;19112;51.076;3.706;2023-01-28T10:33:04;103089.34;;;6.74;58.44
32735;BME280;19112;51.076;3.706;2023-01-28T10:35:38;103066.91;;;6.45;57.87
32735;BME280;19112;51.076;3.706;2023-01-28T10:38:12;103011.97;;;6.34;58.26
32735;BME280;19112;51.076;3.706;2023-01-28T10:40:43;102506.19;;;3.54;58.22
32735;BME280;19112;51.076;3.706;2023-01-28T10:43:21;103044.56;;;6.69;57.89
32735;BME280;19112;51.076;3.706;2023-01-28T10:46:08;103010.41;;;6.66;57.76
32735;BME280;19112;51.076;3.706;2023-01-28T10:48:47;103054.47;;;6.94;57.13
32735;BME280;19112;51.076;3.706;2023-01-28T10:51:29;103088.47;;;7.26;57.04
32735;BME280;19112;51.076;3.706;2023-01-28T10:53:55;103090.22;;;7.15;57.16
32735;BME280;19112;51.076;3.706;2023-01-28T10:56:28;103075.38;;;6.83;57.15
32735;BME280;19112;51.076;3.706;2023-01-28T11:02:03;103088.56;;;7.38;56.95
32735;BME280;19112;51.076;3.706;2023-01-28T11:04:35;102868.38;;;6.22;56.99
32735;BME280;19112;51.076;3.706;2023-01-28T11:07:05;103046.50;;;7.34;56.66
32735;BME280;19112;51.076;3.706;2023-01-28T11:09:35;103007.16;;;7.11;56.33
32735;BME280;19112;51.076;3.706;2023-01-28T11:12:28;103074.97;;;7.42;56.07
32735;BME280;19112;51.076;3.706;2023-01-28T11:14:57;103006.09;;;7.19;56.14
32735;BME280;19112;51.076;3.706;2023-01-28T11:17:36;102999.66;;;7.26;55.87
32735;BME280;19112;51.076;3.706;2023-01-28T11:20:18;103080.03;;;8.04;55.72
32735;BME280;19112;51.076;3.706;2023-01-28T11:22:46;102976.97;;;7.47;54.38
32735;BME280;19112;51.076;3.706;2023-01-28T11:25:34;103032.88;;;7.71;54.77
32735;BME280;19112;51.076;3.706;2023-01-28T11:28:04;102831.97;;;6.66;55.09
32735;BME280;19112;51.076;3.706;2023-01-28T11:30:37;102996.28;;;7.49;55.33
32735;BME280;19112;51.076;3.706;2023-01-28T11:33:18;103034.69;;;7.72;54.66
32735;BME280;19112;51.076;3.706;2023-01-28T11:36:05;103085.56;;;8.19;54.84
32735;BME280;19112;51.076;3.706;2023-01-28T11:38:31;102783.56;;;6.37;54.58
32735;BME280;19112;51.076;3.706;2023-01-28T11:40:58;102954.66;;;7.08;54.58
32735;BME280;19112;51.076;3.706;2023-01-28T11:43:28;103000.19;;;7.22;55.33
32735;BME280;19112;51.076;3.706;2023-01-28T11:46:03;103028.81;;;7.20;54.68
32735;BME280;19112;51.076;3.706;2023-01-28T11:49:09;102994.91;;;7.32;55.22
32735;BME280;19112;51.076;3.706;2023-01-28T12:12:53;102970.31;;;7.08;55.54
32735;BME280;19112;51.076;3.706;2023-01-28T12:15:52;102696.03;;;5.76;56.09
32735;BME280;19112;51.076;3.706;2023-01-28T12:18:45;102819.91;;;6.56;56.22
32735;BME280;19112;51.076;3.706;2023-01-28T12:21:50;102939.63;;;7.38;56.02
32735;BME280;19112;51.076;3.706;2023-01-28T12:27:30;102930.44;;;7.21;56.81
32735;BME280;19112;51.076;3.706;2023-01-28T12:30:17;102922.66;;;7.11;56.68
32735;BME280;19112;51.076;3.706;2023-01-28T12:33:20;102819.69;;;6.43;56.58
32735;BME280;19112;51.076;3.706;2023-01-28T12:36:02;102935.00;;;7.23;56.91
32735;BME280;19112;51.076;3.706;2023-01-28T12:41:23;102663.84;;;6.18;56.73
32735;BME280;19112;51.076;3.706;2023-01-28T12:44:04;102936.19;;;7.82;56.52
32735;BME280;19112;51.076;3.706;2023-01-28T12:46:37;102949.88;;;7.90;56.17
32735;BME280;19112;51.076;3.706;2023-01-28T12:57:37;102952.53;;;7.68;54.66
32735;BME280;19112;51.076;3.706;2023-01-28T13:00:24;102985.41;;;7.54;54.71
32735;BME280;19112;51.076;3.706;2023-01-28T13:03:29;103000.78;;;7.61;55.37
32735;BME280;19112;51.076;3.706;2023-01-28T13:06:03;102927.03;;;7.22;55.14
32735;BME280;19112;51.076;3.706;2023-01-28T13:08:32;102996.69;;;7.87;55.02
32735;BME280;19112;51.076;3.706;2023-01-28T13:11:01;102704.31;;;6.57;54.71
32735;BME280;19112;51.076;3.706;2023-01-28T13:13:35;102660.53;;;6.43;54.17
32735;BME280;19112;51.076;3.706;2023-01-28T13:16:04;102942.25;;;8.27;54.08
32735;BME280;19112;51.076;3.706;2023-01-28T13:31:57;102805.34;;;6.70;54.30
32735;BME280;19112;51.076;3.706;2023-01-28T13:34:41;102742.81;;;6.17;54.92
32735;BME280;19112;51.076;3.706;2023-01-28T13:37:37;102980.78;;;7.62;56.03
32735;BME280;19112;51.076;3.706;2023-01-28T13:42:40;102968.19;;;7.90;55.31
32735;BME280;19112;51.076;3.706;2023-01-28T13:47:46;102668.25;;;6.19;54.61
32735;BME280;19112;51.076;3.706;2023-01-28T13:50:28;102740.28;;;6.61;54.09
32735;BME280;19112;51.076;3.706;2023-01-28T13:55:52;102938.31;;;7.76;53.49
32735;BME280;19112;51.076;3.706;2023-01-28T14:01:47;102922.97;;;7.69;52.90
32735;BME280;19112;51.076;3.706;2023-01-28T14:07:19;102923.00;;;7.81;52.84
32735;BME280;19112;51.076;3.706;2023-01-28T14:18:52;102928.16;;;7.91;53.53
32735;BME280;19112;51.076;3.706;2023-01-28T14:21:21;102674.47;;;6.65;53.93
32735;BME280;19112;51.076;3.706;2023-01-28T14:23:54;102925.78;;;7.94;52.95
32735;BME280;19112;51.076;3.706;2023-01-28T14:26:36;102933.13;;;7.88;53.87
32735;BME280;19112;51.076;3.706;2023-01-28T14:32:18;102882.22;;;7.61;53.29
32735;BME280;19112;51.076;3.706;2023-01-28T14:34:45;102898.31;;;7.44;53.09
32735;BME280;19112;51.076;3.706;2023-01-28T14:37:15;102791.22;;;6.78;53.27
32735;BME280;19112;51.076;3.706;2023-01-28T14:39:59;102774.28;;;6.51;53.16
32735;BME280;19112;51.076;3.706;2023-01-28T14:42:42;102782.06;;;6.61;53.65
32735;BME280;19112;51.076;3.706;2023-01-28T14:49:07;102921.59;;;7.63;53.60
32735;BME280;19112;51.076;3.706;2023-01-28T14:57:51;102913.97;;;7.44;53.31
32735;BME280;19112;51.076;3.706;2023-01-28T15:00:28;102950.50;;;7.76;53.98
32735;BME280;19112;51.076;3.706;2023-01-28T15:02:54;102928.66;;;7.75;53.55
32735;BME280;19112;51.076;3.706;2023-01-28T15:05:26;102544.88;;;5.76;52.98
32735;BME280;19112;51.076;3.706;2023-01-28T15:07:53;102974.38;;;8.14;52.85
32735;BME280;19112;51.076;3.706;2023-01-28T15:10:35;102798.19;;;7.11;52.48
32735;BME280;19112;51.076;3.706;2023-01-28T15:13:09;102928.66;;;7.75;53.42
32735;BME280;19112;51.076;3.706;2023-01-28T15:15:46;102889.97;;;7.38;53.47
32735;BME280;19112;51.076;3.706;2023-01-28T15:18:19;102930.00;;;7.70;53.45
32735;BME280;19112;51.076;3.706;2023-01-28T15:20:51;102870.16;;;7.29;53.50
32735;BME280;19112;51.076;3.706;2023-01-28T15:23:25;102908.38;;;7.61;53.57
32735;BME280;19112;51.076;3.706;2023-01-28T15:25:52;102795.44;;;6.98;53.32
32735;BME280;19112;51.076;3.706;2023-01-28T15:28:29;102976.50;;;7.96;53.58